createdAt,value
2022-09-28T00:01:52.559Z,98412.88
2022-09-28T00:04:58.023Z,98411.31
2022-09-28T00:07:29.513Z,98411.38
2022-09-28T00:13:07.998Z,98401.66
2022-09-28T00:15:39.048Z,98403.59
2022-09-28T00:18:10.208Z,98401.14
2022-09-28T00:20:41.373Z,98401.14
2022-09-28T00:23:12.574Z,98399.30
2022-09-28T00:25:43.596Z,98396.42
2022-09-28T00:28:14.726Z,98389.24
2022-09-28T00:30:45.977Z,98389.60
2022-09-28T00:33:17.161Z,98384.02
2022-09-28T00:35:48.263Z,98381.31
2022-09-28T00:38:20.444Z,98377.92
2022-09-28T00:43:40.666Z,98377.30
2022-09-28T00:46:19.604Z,98379.36
2022-09-28T00:48:58.401Z,98376.48
2022-09-28T00:51:31.602Z,98366.12
2022-09-28T00:54:06.363Z,98365.05
2022-09-28T00:56:38.580Z,98366.02
2022-09-28T00:59:11.578Z,98366.08
2022-09-28T01:01:42.740Z,98369.63
2022-09-28T01:04:14.143Z,98372.89
2022-09-28T01:06:47.668Z,98377.05
2022-09-28T01:09:19.988Z,98377.16
2022-09-28T01:11:51.715Z,98374.42
2022-09-28T01:14:25.866Z,98372.45
2022-09-28T01:17:06.487Z,98369.19
2022-09-28T01:20:08.670Z,98366.88
2022-09-28T01:23:06.745Z,98372.17
2022-09-28T01:25:47.519Z,98378.11
2022-09-28T01:28:20.716Z,98367.91
2022-09-28T01:30:59.748Z,98366.68
2022-09-28T01:33:36.825Z,98377.96
2022-09-28T01:36:13.217Z,98384.02
2022-09-28T01:38:48.597Z,98384.95
2022-09-28T01:41:22.311Z,98384.53
2022-09-28T01:43:57.813Z,98392.03
2022-09-28T01:46:35.015Z,98390.92
2022-09-28T01:49:11.408Z,98393.03
2022-09-28T01:51:47.398Z,98394.23
2022-09-28T01:54:27.930Z,98396.75
2022-09-28T01:57:04.410Z,98396.65
2022-09-28T01:59:38.686Z,98396.41
2022-09-28T02:02:15.130Z,98397.05
2022-09-28T02:04:51.054Z,98396.23
2022-09-28T02:07:27.170Z,98398.39
2022-09-28T02:10:02.251Z,98394.63
2022-09-28T02:12:38.945Z,98398.09
2022-09-28T02:15:18.479Z,98398.67
2022-09-28T02:17:50.715Z,98399.30
2022-09-28T02:20:25.498Z,98402.34
2022-09-28T02:22:59.253Z,98401.80
2022-09-28T02:25:39.761Z,98393.76
2022-09-28T02:28:14.792Z,98390.17
2022-09-28T02:30:47.637Z,98386.93
2022-09-28T02:33:23.443Z,98387.99
2022-09-28T02:35:55.076Z,98384.35
2022-09-28T02:38:26.871Z,98384.36
2022-09-28T02:41:10.860Z,98387.21
2022-09-28T02:43:54.486Z,98385.29
2022-09-28T02:46:34.184Z,98387.39
2022-09-28T02:49:21.718Z,98387.77
2022-09-28T02:52:15.310Z,98387.16
2022-09-28T02:55:08.692Z,98384.71
2022-09-28T02:57:52.437Z,98382.54
2022-09-28T03:00:25.561Z,98384.77
2022-09-28T03:03:10.322Z,98386.08
2022-09-28T03:05:47.314Z,98384.48
2022-09-28T03:08:25.978Z,98387.02
2022-09-28T03:11:00.950Z,98393.73
2022-09-28T03:13:33.239Z,98396.52
2022-09-28T03:16:16.777Z,98396.44
2022-09-28T03:18:48.444Z,98395.41
2022-09-28T03:21:19.956Z,98398.22
2022-09-28T03:23:50.974Z,98393.05
2022-09-28T03:26:22.893Z,98399.44
2022-09-28T03:28:54.043Z,98402.13
2022-09-28T03:31:25.544Z,98403.81
2022-09-28T03:34:00.934Z,98406.34
2022-09-28T03:36:36.692Z,98403.19
2022-09-28T03:39:09.138Z,98403.14
2022-09-28T03:41:40.329Z,98400.20
2022-09-28T03:44:11.460Z,98399.56
2022-09-28T03:46:42.603Z,98404.95
2022-09-28T03:49:14.221Z,98410.20
2022-09-28T03:51:45.469Z,98413.29
2022-09-28T03:54:17.684Z,98419.40
2022-09-28T03:56:48.875Z,98419.69
2022-09-28T03:59:20.440Z,98421.77
2022-09-28T04:01:53.800Z,98421.29
2022-09-28T04:04:25.384Z,98424.89
2022-09-28T04:06:56.588Z,98424.95
2022-09-28T04:09:28.107Z,98431.02
2022-09-28T04:12:03.717Z,98429.51
2022-09-28T04:14:35.465Z,98428.45
2022-09-28T04:17:07.497Z,98432.20
2022-09-28T04:19:38.647Z,98435.22
2022-09-28T04:22:09.743Z,98432.73
2022-09-28T04:24:43.762Z,98430.40
2022-09-28T04:27:32.345Z,98433.27
2022-09-28T04:30:03.555Z,98431.71
2022-09-28T04:32:34.724Z,98427.70
2022-09-28T04:35:06.728Z,98428.61
2022-09-28T04:37:37.920Z,98429.64
2022-09-28T04:40:10.763Z,98430.01
2022-09-28T04:42:42.049Z,98428.11
2022-09-28T04:45:14.204Z,98429.91
2022-09-28T04:47:45.248Z,98424.48
2022-09-28T04:50:16.484Z,98425.67
2022-09-28T04:52:47.704Z,98419.22
2022-09-28T04:55:20.907Z,98420.93
2022-09-28T04:57:52.384Z,98419.55
2022-09-28T05:00:23.740Z,98420.19
2022-09-28T05:02:55.171Z,98418.86
2022-09-28T05:05:26.630Z,98418.66
2022-09-28T05:08:00.953Z,98420.70
2022-09-28T05:10:32.462Z,98421.46
2022-09-28T05:13:04.596Z,98425.23
2022-09-28T05:15:37.453Z,98419.80
2022-09-28T05:18:09.257Z,98420.73
2022-09-28T05:20:44.742Z,98415.15
2022-09-28T05:23:16.917Z,98412.11
2022-09-28T05:25:48.471Z,98410.52
2022-09-28T05:28:26.320Z,98411.06
2022-09-28T05:31:01.720Z,98409.62
2022-09-28T05:33:34.378Z,98415.80
2022-09-28T05:36:06.261Z,98412.98
2022-09-28T05:38:37.645Z,98415.34
2022-09-28T05:41:09.469Z,98418.83
2022-09-28T05:43:40.980Z,98417.45
2022-09-28T05:46:12.262Z,98416.73
2022-09-28T05:48:43.437Z,98410.40
2022-09-28T05:51:14.652Z,98418.52
2022-09-28T05:53:45.881Z,98414.86
2022-09-28T05:56:17.210Z,98420.02
2022-09-28T05:58:48.477Z,98426.27
2022-09-28T06:01:20.152Z,98429.06
2022-09-28T06:03:51.330Z,98425.96
2022-09-28T06:06:22.542Z,98422.61
2022-09-28T06:08:53.864Z,98421.30
2022-09-28T06:11:28.136Z,98420.16
2022-09-28T06:13:59.557Z,98420.55
2022-09-28T06:16:31.059Z,98422.39
2022-09-28T06:19:05.195Z,98426.20
2022-09-28T06:21:36.617Z,98432.23
2022-09-28T06:24:08.689Z,98429.79
2022-09-28T06:26:40.124Z,98433.38
2022-09-28T06:29:18.685Z,98427.48
2022-09-28T06:31:51.647Z,98426.20
2022-09-28T06:34:24.990Z,98430.30
2022-09-28T06:36:56.255Z,98429.76
2022-09-28T06:39:27.504Z,98427.19
2022-09-28T06:41:59.207Z,98434.83
2022-09-28T06:44:30.684Z,98439.45
2022-09-28T06:47:01.931Z,98433.17
2022-09-28T06:49:33.212Z,98445.63
2022-09-28T06:52:04.738Z,98446.05
2022-09-28T06:54:36.202Z,98448.29
2022-09-28T06:57:07.492Z,98452.54
2022-09-28T06:59:38.757Z,98455.84
2022-09-28T07:02:13.081Z,98456.66
2022-09-28T07:04:45.350Z,98455.95
2022-09-28T07:07:16.511Z,98456.33
2022-09-28T07:09:51.287Z,98455.98
2022-09-28T07:12:25.741Z,98460.42
2022-09-28T07:14:57.912Z,98458.81
2022-09-28T07:20:25.379Z,98457.52
2022-09-28T07:23:10.853Z,98461.66
2022-09-28T07:25:48.117Z,98461.73
2022-09-28T07:28:20.614Z,98464.77
2022-09-28T07:30:51.972Z,98465.52
2022-09-28T07:33:25.386Z,98470.32
2022-09-28T07:35:57.037Z,98467.17
2022-09-28T07:38:28.380Z,98462.73
2022-09-28T07:41:21.712Z,98459.86
2022-09-28T07:43:53.050Z,98458.23
2022-09-28T07:46:24.390Z,98458.85
2022-09-28T07:48:55.765Z,98453.80
2022-09-28T07:51:27.024Z,98453.25
2022-09-28T07:53:58.738Z,98456.58
2022-09-28T07:56:31.232Z,98452.90
2022-09-28T07:59:02.728Z,98454.38
2022-09-28T08:01:33.927Z,98454.71
2022-09-28T08:04:06.480Z,98450.65
2022-09-28T08:06:37.662Z,98450.70
2022-09-28T08:09:08.891Z,98460.23
2022-09-28T08:11:40.741Z,98458.11
2022-09-28T08:14:12.389Z,98458.73
2022-09-28T08:16:47.615Z,98459.63
2022-09-28T08:19:20.833Z,98459.80
2022-09-28T08:21:52.367Z,98459.73
2022-09-28T08:24:24.953Z,98458.65
2022-09-28T08:26:57.332Z,98458.48
2022-09-28T08:29:32.260Z,98456.46
2022-09-28T08:32:06.601Z,98457.60
2022-09-28T08:34:38.555Z,98456.02
2022-09-28T08:37:10.458Z,98459.67
2022-09-28T08:39:41.570Z,98455.33
2022-09-28T08:42:31.323Z,98454.59
2022-09-28T08:45:10.595Z,98453.30
2022-09-28T08:48:08.806Z,98455.86
2022-09-28T08:50:50.817Z,98454.36
2022-09-28T08:53:38.324Z,98456.69
2022-09-28T08:56:16.735Z,98459.83
2022-09-28T08:58:53.454Z,98461.38
2022-09-28T09:01:30.000Z,98460.48
2022-09-28T09:04:01.321Z,98463.11
2022-09-28T09:06:42.863Z,98464.85
2022-09-28T09:09:23.079Z,98463.52
2022-09-28T09:12:04.320Z,98462.67
2022-09-28T09:15:01.302Z,98461.55
2022-09-28T09:17:43.356Z,98467.77
2022-09-28T09:20:21.740Z,98463.05
2022-09-28T09:23:01.642Z,98463.93
2022-09-28T09:25:42.617Z,98461.67
2022-09-28T09:28:42.438Z,98461.47
2022-09-28T09:31:27.512Z,98455.01
2022-09-28T09:34:14.028Z,98454.57
2022-09-28T09:36:59.738Z,98454.24
2022-09-28T09:39:43.845Z,98446.45
2022-09-28T09:42:32.044Z,98449.52
2022-09-28T09:45:28.928Z,98455.18
2022-09-28T09:48:03.769Z,98455.91
2022-09-28T09:50:40.939Z,98458.66
2022-09-28T09:53:19.883Z,98457.50
2022-09-28T09:55:57.617Z,98460.75
2022-09-28T09:58:35.952Z,98465.34
2022-09-28T10:01:14.519Z,98464.27
2022-09-28T10:03:49.599Z,98468.91
2022-09-28T10:06:28.758Z,98466.70
2022-09-28T10:09:05.632Z,98468.10
2022-09-28T10:11:41.249Z,98469.05
2022-09-28T10:14:17.845Z,98472.91
2022-09-28T10:16:51.095Z,98474.50
2022-09-28T10:19:30.728Z,98471.67
2022-09-28T10:22:04.735Z,98472.92
2022-09-28T10:24:40.216Z,98472.60
2022-09-28T10:27:15.914Z,98469.59
2022-09-28T10:29:55.488Z,98464.83
2022-09-28T10:32:28.479Z,98467.36
2022-09-28T10:35:21.900Z,98469.70
2022-09-28T10:37:59.449Z,98468.20
2022-09-28T10:40:41.054Z,98461.54
2022-09-28T10:43:23.308Z,98458.66
2022-09-28T10:46:04.980Z,98458.03
2022-09-28T10:51:46.915Z,98457.67
2022-09-28T10:54:20.200Z,98455.95
2022-09-28T10:56:52.586Z,98459.02
2022-09-28T10:59:41.010Z,98462.80
2022-09-28T11:02:26.661Z,98458.61
2022-09-28T11:04:59.449Z,98460.72
2022-09-28T11:07:33.213Z,98455.71
2022-09-28T11:10:06.019Z,98457.09
2022-09-28T11:12:45.740Z,98458.83
2022-09-28T11:15:22.735Z,98456.92
2022-09-28T11:17:54.541Z,98460.36
2022-09-28T11:20:35.773Z,98465.50
2022-09-28T11:23:21.890Z,98466.70
2022-09-28T11:26:07.204Z,98472.17
2022-09-28T11:28:43.302Z,98474.81
2022-09-28T11:31:15.238Z,98472.23
2022-09-28T11:33:49.013Z,98469.46
2022-09-28T11:36:32.229Z,98468.14
2022-09-28T11:39:12.947Z,98466.54
2022-09-28T11:41:55.799Z,98464.64
2022-09-28T11:44:45.070Z,98462.92
2022-09-28T11:47:39.292Z,98464.56
2022-09-28T11:50:23.777Z,98464.29
2022-09-28T11:53:10.413Z,98468.25
2022-09-28T11:55:48.555Z,98468.38
2022-09-28T11:58:27.603Z,98471.16
2022-09-28T12:01:05.005Z,98472.45
2022-09-28T12:03:45.269Z,98473.77
2022-09-28T12:06:21.177Z,98471.70
2022-09-28T12:08:56.941Z,98471.48
2022-09-28T12:11:37.085Z,98468.34
2022-09-28T12:14:16.717Z,98465.65
2022-09-28T12:17:11.263Z,98459.79
2022-09-28T12:19:48.054Z,98462.84
2022-09-28T12:22:27.046Z,98459.17
2022-09-28T12:25:00.761Z,98457.69
2022-09-28T12:27:39.415Z,98454.86
2022-09-28T12:30:17.096Z,98454.14
2022-09-28T12:32:52.429Z,98448.33
2022-09-28T12:35:35.351Z,98454.00
2022-09-28T12:38:29.143Z,98454.27
2022-09-28T12:41:10.412Z,98457.91
2022-09-28T12:44:05.985Z,98454.40
2022-09-28T12:46:50.818Z,98451.66
2022-09-28T12:52:35.311Z,98439.80
2022-09-28T12:55:29.990Z,98431.70
2022-09-28T12:58:07.958Z,98426.98
2022-09-28T13:00:44.525Z,98428.11
2022-09-28T13:03:59.381Z,98428.25
2022-09-28T13:06:42.710Z,98426.44
2022-09-28T13:09:24.128Z,98420.36
2022-09-28T13:12:05.599Z,98421.52
2022-09-28T13:15:15.899Z,98426.26
2022-09-28T13:17:54.792Z,98425.32
2022-09-28T13:20:36.183Z,98432.84
2022-09-28T13:23:20.089Z,98435.45
2022-09-28T13:25:58.211Z,98437.95
2022-09-28T13:28:31.689Z,98443.43
2022-09-28T13:31:04.786Z,98442.55
2022-09-28T13:33:39.288Z,98444.01
2022-09-28T13:36:47.898Z,98440.48
2022-09-28T13:39:49.174Z,98433.09
2022-09-28T13:42:53.435Z,98429.58
2022-09-28T13:45:58.901Z,98428.48
2022-09-28T13:48:48.784Z,98424.70
2022-09-28T13:51:43.202Z,98426.73
2022-09-28T13:54:41.502Z,98426.63
2022-09-28T13:57:25.620Z,98425.16
2022-09-28T14:00:06.021Z,98428.87
2022-09-28T14:02:42.701Z,98423.77
2022-09-28T14:05:49.609Z,98425.73
2022-09-28T14:08:39.963Z,98424.23
2022-09-28T14:11:44.309Z,98426.27
2022-09-28T14:14:50.113Z,98425.35
2022-09-28T14:17:54.607Z,98424.90
2022-09-28T14:20:32.086Z,98428.23
2022-09-28T14:23:30.320Z,98431.40
2022-09-28T14:26:19.237Z,98424.71
2022-09-28T14:29:02.563Z,98429.95
2022-09-28T14:31:33.860Z,98432.55
2022-09-28T14:34:06.303Z,98434.42
2022-09-28T14:37:01.001Z,98436.74
2022-09-28T14:39:52.876Z,98439.40
2022-09-28T14:42:26.463Z,98451.10
2022-09-28T14:45:30.473Z,98448.82
2022-09-28T14:48:15.891Z,98445.67
2022-09-28T14:50:49.105Z,98431.70
2022-09-28T14:53:25.557Z,98423.09
2022-09-28T14:56:02.105Z,98423.79
2022-09-28T14:58:33.894Z,98421.01
2022-09-28T15:01:21.984Z,98422.27
2022-09-28T15:03:56.794Z,98419.03
2022-09-28T15:06:45.279Z,98424.30
2022-09-28T15:12:21.829Z,98431.15
2022-09-28T15:14:55.734Z,98432.77
2022-09-28T15:17:34.607Z,98435.42
2022-09-28T15:20:30.281Z,98432.73
2022-09-28T15:23:02.545Z,98430.48
2022-09-28T15:25:36.159Z,98428.21
2022-09-28T15:28:19.836Z,98427.17
2022-09-28T15:30:52.068Z,98423.91
2022-09-28T15:33:46.492Z,98418.84
2022-09-28T15:36:21.603Z,98415.85
2022-09-28T15:38:58.558Z,98412.45
2022-09-28T15:41:31.513Z,98415.56
2022-09-28T15:44:33.541Z,98414.56
2022-09-28T15:47:25.508Z,98416.52
2022-09-28T15:50:00.841Z,98410.48
2022-09-28T15:52:37.314Z,98408.63
2022-09-28T15:55:24.339Z,98403.92
2022-09-28T15:58:09.019Z,98401.45
2022-09-28T16:00:40.513Z,98401.29
2022-09-28T16:03:29.314Z,98405.55
2022-09-28T16:06:12.378Z,98402.58
2022-09-28T16:08:45.234Z,98402.88
2022-09-28T16:11:22.104Z,98397.14
2022-09-28T16:14:06.328Z,98393.48
2022-09-28T16:16:46.623Z,98395.90
2022-09-28T16:19:24.903Z,98396.16
2022-09-28T16:21:57.094Z,98392.52
2022-09-28T16:24:33.096Z,98403.34
2022-09-28T16:27:07.034Z,98417.14
2022-09-28T16:29:40.622Z,98417.31
2022-09-28T16:32:41.981Z,98416.52
2022-09-28T16:35:23.677Z,98420.69
2022-09-28T16:38:10.921Z,98424.05
2022-09-28T16:40:48.168Z,98418.05
2022-09-28T16:43:27.231Z,98412.86
2022-09-28T16:46:00.929Z,98418.16
2022-09-28T16:48:35.918Z,98421.34
2022-09-28T16:51:07.566Z,98431.80
2022-09-28T16:53:56.493Z,98433.29
2022-09-28T16:56:29.505Z,98433.05
2022-09-28T16:59:01.502Z,98440.59
2022-09-28T17:01:33.235Z,98448.81
2022-09-28T17:04:05.396Z,98451.43
2022-09-28T17:06:37.000Z,98459.27
2022-09-28T17:09:10.763Z,98467.26
2022-09-28T17:11:41.906Z,98473.59
2022-09-28T17:14:14.324Z,98473.49
2022-09-28T17:19:37.909Z,98475.23
2022-09-28T17:22:09.464Z,98471.70
2022-09-28T17:24:40.699Z,98479.67
2022-09-28T17:27:18.161Z,98480.38
2022-09-28T17:29:49.389Z,98491.41
2022-09-28T17:32:22.058Z,98493.38
2022-09-28T17:35:06.576Z,98492.58
2022-09-28T17:37:45.369Z,98488.48
2022-09-28T17:40:22.839Z,98491.45
2022-09-28T17:42:56.316Z,98494.39
2022-09-28T17:45:31.574Z,98496.54
2022-09-28T17:48:03.214Z,98488.67
2022-09-28T17:50:36.324Z,98491.08
2022-09-28T17:53:07.667Z,98486.76
2022-09-28T17:55:40.344Z,98486.27
2022-09-28T17:58:18.434Z,98486.94
2022-09-28T18:00:51.585Z,98484.77
2022-09-28T18:03:24.656Z,98482.92
2022-09-28T18:06:03.774Z,98483.39
2022-09-28T18:08:35.983Z,98484.84
2022-09-28T18:11:07.804Z,98482.16
2022-09-28T18:13:39.302Z,98479.48
2022-09-28T18:16:11.499Z,98479.87
2022-09-28T18:18:42.973Z,98483.75
2022-09-28T18:21:14.481Z,98480.41
2022-09-28T18:23:45.924Z,98481.35
2022-09-28T18:26:19.856Z,98478.67
2022-09-28T18:28:55.122Z,98473.67
2022-09-28T18:31:28.130Z,98469.05
2022-09-28T18:34:02.208Z,98473.11
2022-09-28T18:36:36.708Z,98467.77
2022-09-28T18:39:09.427Z,98463.25
2022-09-28T18:41:40.862Z,98454.00
2022-09-28T18:44:12.850Z,98455.44
2022-09-28T18:46:45.338Z,98449.52
2022-09-28T18:49:16.800Z,98442.91
2022-09-28T18:51:48.281Z,98440.09
2022-09-28T18:54:21.303Z,98433.43
2022-09-28T18:56:56.047Z,98437.80
2022-09-28T18:59:27.941Z,98443.14
2022-09-28T19:02:01.752Z,98442.34
2022-09-28T19:04:33.214Z,98440.44
2022-09-28T19:07:04.553Z,98440.37
2022-09-28T19:09:36.225Z,98443.30
2022-09-28T19:12:07.673Z,98445.17
2022-09-28T19:14:39.406Z,98445.08
2022-09-28T19:17:11.558Z,98444.29
2022-09-28T19:19:43.376Z,98448.20
2022-09-28T19:22:15.401Z,98444.53
2022-09-28T19:24:47.236Z,98450.86
2022-09-28T19:27:18.557Z,98449.98
2022-09-28T19:29:50.625Z,98454.42
2022-09-28T19:32:21.992Z,98453.96
2022-09-28T19:34:53.288Z,98448.23
2022-09-28T19:37:24.975Z,98449.55
2022-09-28T19:39:56.248Z,98456.26
2022-09-28T19:42:27.852Z,98453.98
2022-09-28T19:44:59.339Z,98451.39
2022-09-28T19:47:31.926Z,98454.91
2022-09-28T19:50:03.688Z,98457.36
2022-09-28T19:52:34.994Z,98460.20
2022-09-28T19:55:06.747Z,98459.55
2022-09-28T19:57:38.468Z,98464.73
2022-09-28T20:00:13.304Z,98471.02
2022-09-28T20:02:44.481Z,98471.55
2022-09-28T20:05:15.792Z,98473.26
2022-09-28T20:07:47.376Z,98477.36
2022-09-28T20:10:19.205Z,98478.59
2022-09-28T20:12:50.399Z,98480.70
2022-09-28T20:15:22.576Z,98482.52
2022-09-28T20:17:54.330Z,98487.96
2022-09-28T20:20:27.045Z,98494.60
2022-09-28T20:22:58.969Z,98492.29
2022-09-28T20:25:30.419Z,98490.00
2022-09-28T20:28:01.657Z,98491.02
2022-09-28T20:30:33.411Z,98492.89
2022-09-28T20:33:04.865Z,98501.45
2022-09-28T20:35:37.371Z,98502.34
2022-09-28T20:38:09.367Z,98503.83
2022-09-28T20:40:41.299Z,98506.34
2022-09-28T20:43:12.509Z,98513.07
2022-09-28T20:45:44.339Z,98515.23
2022-09-28T20:48:15.565Z,98511.58
2022-09-28T20:50:46.812Z,98520.59
2022-09-28T20:53:17.910Z,98523.92
2022-09-28T20:55:49.024Z,98517.65
2022-09-28T20:58:20.279Z,98523.95
2022-09-28T21:00:51.377Z,98524.11
2022-09-28T21:03:22.850Z,98525.63
2022-09-28T21:05:55.707Z,98521.66
2022-09-28T21:08:27.373Z,98520.14
2022-09-28T21:10:59.165Z,98517.92
2022-09-28T21:13:30.442Z,98516.95
2022-09-28T21:16:04.753Z,98515.39
2022-09-28T21:18:35.980Z,98515.17
2022-09-28T21:21:09.205Z,98517.54
2022-09-28T21:23:40.743Z,98519.91
2022-09-28T21:26:13.819Z,98527.32
2022-09-28T21:28:46.236Z,98531.79
2022-09-28T21:31:17.427Z,98534.76
2022-09-28T21:33:49.046Z,98535.27
2022-09-28T21:36:20.561Z,98540.08
2022-09-28T21:38:51.714Z,98540.27
2022-09-28T21:41:23.173Z,98538.98
2022-09-28T21:43:54.353Z,98547.45
2022-09-28T21:46:27.140Z,98555.83
2022-09-28T21:48:58.364Z,98553.73
2022-09-28T21:51:29.592Z,98545.25
2022-09-28T21:54:00.837Z,98543.56
2022-09-28T21:56:32.676Z,98545.80
2022-09-28T21:59:04.579Z,98544.88
2022-09-28T22:01:36.046Z,98550.77
2022-09-28T22:04:07.393Z,98560.65
2022-09-28T22:06:38.602Z,98566.20
2022-09-28T22:09:10.291Z,98563.48
2022-09-28T22:11:41.760Z,98562.98
2022-09-28T22:14:15.877Z,98559.92
2022-09-28T22:16:47.239Z,98556.20
2022-09-28T22:19:18.554Z,98560.33
2022-09-28T22:21:49.787Z,98564.04
2022-09-28T22:24:21.138Z,98563.17
2022-09-28T22:26:52.364Z,98567.23
2022-09-28T22:29:24.195Z,98567.84
2022-09-28T22:32:02.344Z,98574.21
2022-09-28T22:34:33.749Z,98582.16
2022-09-28T22:37:05.850Z,98577.50
2022-09-28T22:39:37.993Z,98574.08
2022-09-28T22:42:09.935Z,98572.93
2022-09-28T22:44:41.034Z,98575.98
2022-09-28T22:47:12.627Z,98576.73
2022-09-28T22:49:44.484Z,98578.63
2022-09-28T22:52:16.461Z,98581.21
2022-09-28T22:54:48.261Z,98579.58
2022-09-28T22:57:19.710Z,98576.73
2022-09-28T22:59:50.974Z,98578.19
2022-09-28T23:02:22.635Z,98576.54
2022-09-28T23:04:53.933Z,98568.16
2022-09-28T23:07:26.678Z,98564.22
2022-09-28T23:10:00.252Z,98567.49
2022-09-28T23:12:33.623Z,98573.16
2022-09-28T23:15:05.077Z,98574.92
2022-09-28T23:17:36.221Z,98578.69
2022-09-28T23:20:08.648Z,98581.34
2022-09-28T23:22:39.851Z,98585.16
2022-09-28T23:25:11.924Z,98597.58
2022-09-28T23:27:45.644Z,98600.12
2022-09-28T23:30:18.446Z,98598.77
2022-09-28T23:32:49.938Z,98600.95
2022-09-28T23:35:21.743Z,98600.33
2022-09-28T23:37:56.158Z,98597.16
2022-09-28T23:40:28.122Z,98601.33
2022-09-28T23:42:59.279Z,98597.76
2022-09-28T23:45:30.361Z,98597.81
2022-09-28T23:48:01.576Z,98596.34
2022-09-28T23:50:32.846Z,98597.49
2022-09-28T23:53:04.215Z,98600.35
2022-09-28T23:55:35.810Z,98596.55
2022-09-28T23:58:06.985Z,98602.04
